Noshiro, Japan
Current Conditions -  °F | °C
As of 10:00 AM on Saturday 01 Nov 2014 (Local Time) from RJSR Reporting Station
Broken Clouds Broken Clouds  
Wind Chill: 46°   Ceiling: Unl
Heat Index: 46°   Visibility: 6mi
Dew Point: 45°   Wind: 0mph
Humidity: 93%   Direction: NA
Pressure: 30.03"   Gusts: NA
Location:  40.2°N, 140.03°E
Report Text: RJSR 010100Z 00000KT 9999 FEW005 BKN/// 08/07 Q1017
Loading
Personal Weather Stations






























Interactive Weather Map
Tropical Storm Tracking
New forecast layout! Learn more

10-Day Weather Forecast

Advertisements
Track Severe Weather on mobile